Time;durP1;ratioP1;P1;durP2;ratioP2;P2;SDS_P1;SDS_P2;PMS_P1;PMS_P2;Temp;Humidity;BMP_temperature;BMP_pressure;BME280_temperature;BME280_humidity;BME280_pressure;Samples;Min_cycle;Max_cycle;Signal;HPM_P1;HPM_P2
2022/11/09 00:04:58;;;;;;;16.00;4.57;;;16.90;73.60;;;;;;5021129;28;20203;-95
2022/11/09 00:07:25;;;;;;;13.40;3.73;;;16.80;74.00;;;;;;5011447;28;20237;-92
2022/11/09 00:09:55;;;;;;;18.13;4.37;;;16.80;73.80;;;;;;5015824;28;20677;-94
2022/11/09 00:12:27;;;;;;;13.77;3.37;;;16.80;74.10;;;;;;5017112;28;20937;-93
2022/11/09 00:15:00;;;;;;;13.17;3.60;;;16.80;74.10;;;;;;5004312;28;20268;-92
2022/11/09 00:17:28;;;;;;;13.27;2.93;;;16.80;74.50;;;;;;5019313;28;20625;-92
2022/11/09 00:19:58;;;;;;;20.73;4.97;;;16.70;74.40;;;;;;5022560;28;20220;-93
2022/11/09 00:22:31;;;;;;;10.40;3.83;;;16.70;74.20;;;;;;5020191;28;20200;-92
2022/11/09 00:25:05;;;;;;;12.63;3.50;;;16.70;74.60;;;;;;5016015;28;20218;-92
2022/11/09 00:27:37;;;;;;;10.33;3.07;;;16.70;74.80;;;;;;5021577;28;20197;-93
2022/11/09 00:30:10;;;;;;;9.47;3.33;;;16.70;74.60;;;;;;5018363;28;20226;-92
2022/11/09 00:32:46;;;;;;;14.50;3.50;;;16.70;75.00;;;;;;5023094;28;20264;-92
2022/11/09 00:35:14;;;;;;;8.10;3.03;;;16.70;74.90;;;;;;5018164;28;20318;-93
2022/11/09 00:37:43;;;;;;;10.93;2.80;;;16.60;74.70;;;;;;5017379;28;20208;-93
2022/11/09 00:40:15;;;;;;;7.17;2.53;;;16.70;74.90;;;;;;5024601;28;20228;-93
2022/11/09 00:42:46;;;;;;;15.80;3.80;;;16.70;75.10;;;;;;5023760;28;20210;-92
2022/11/09 00:45:15;;;;;;;10.83;2.83;;;16.60;75.00;;;;;;5015381;28;20250;-93
2022/11/09 00:47:45;;;;;;;11.53;4.23;;;16.60;75.10;;;;;;5023321;28;20229;-92
2022/11/09 00:50:14;;;;;;;10.80;2.60;;;16.60;75.40;;;;;;5017035;28;20203;-93
2022/11/09 00:52:41;;;;;;;13.77;3.40;;;16.60;75.50;;;;;;5016078;28;20205;-93
2022/11/09 00:55:19;;;;;;;13.47;3.40;;;16.60;75.30;;;;;;5012396;28;20212;-91
2022/11/09 00:57:52;;;;;;;16.07;5.23;;;16.60;75.50;;;;;;5008427;28;20296;-92
2022/11/09 01:00:27;;;;;;;16.27;4.50;;;16.60;75.40;;;;;;5008045;28;20249;-91
2022/11/09 01:03:08;;;;;;;14.47;4.47;;;16.60;75.40;;;;;;5009945;28;20227;-93
2022/11/09 01:05:41;;;;;;;12.37;3.83;;;16.60;75.40;;;;;;5015799;28;20214;-92
2022/11/09 01:08:16;;;;;;;13.07;4.03;;;16.60;75.40;;;;;;5014172;28;20661;-93
2022/11/09 01:10:48;;;;;;;16.13;4.20;;;16.60;75.20;;;;;;5005908;28;21030;-93
2022/11/09 01:13:22;;;;;;;12.37;3.17;;;16.60;76.10;;;;;;5017411;28;20260;-94
2022/11/09 01:16:02;;;;;;;10.30;3.23;;;16.60;75.50;;;;;;5019325;28;20240;-93
2022/11/09 01:18:43;;;;;;;6.93;3.07;;;16.50;75.20;;;;;;5011745;28;20240;-92
2022/11/09 01:21:14;;;;;;;15.07;4.43;;;16.60;75.10;;;;;;5010986;28;20265;-93
2022/11/09 01:23:43;;;;;;;8.03;3.07;;;16.60;75.30;;;;;;5024950;28;20200;-93
2022/11/09 01:26:17;;;;;;;8.37;2.97;;;16.60;75.10;;;;;;5018391;28;20205;-93
2022/11/09 01:28:45;;;;;;;19.00;5.40;;;16.60;75.10;;;;;;5018635;28;20220;-93
2022/11/09 01:31:22;;;;;;;8.03;2.77;;;16.60;75.10;;;;;;5023653;28;20294;-92
2022/11/09 01:33:51;;;;;;;9.77;3.70;;;16.60;75.20;;;;;;5026182;28;20298;-93
2022/11/09 01:36:20;;;;;;;12.27;3.90;;;16.60;75.00;;;;;;5027023;28;20212;-93
2022/11/09 01:38:52;;;;;;;8.87;2.57;;;16.60;75.00;;;;;;5021922;28;20221;-93
2022/11/09 01:41:24;;;;;;;8.63;2.50;;;16.60;74.90;;;;;;5027354;28;20217;-92
2022/11/09 01:44:09;;;;;;;13.37;3.93;;;16.50;75.70;;;;;;5026274;28;20211;-93
2022/11/09 01:46:43;;;;;;;14.63;4.37;;;16.50;75.00;;;;;;5014829;28;20259;-93
2022/11/09 01:49:19;;;;;;;13.00;3.40;;;16.50;75.00;;;;;;5019727;28;20215;-92
2022/11/09 01:51:50;;;;;;;18.63;5.13;;;16.50;75.00;;;;;;5014000;28;20211;-91
2022/11/09 01:54:26;;;;;;;11.70;3.67;;;16.50;75.10;;;;;;5012270;28;20292;-92
2022/11/09 01:56:58;;;;;;;13.20;4.07;;;16.40;75.00;;;;;;5012330;28;20220;-93
2022/11/09 01:59:29;;;;;;;9.03;2.93;;;16.40;74.80;;;;;;5015011;28;20270;-94
2022/11/09 02:01:59;;;;;;;8.47;3.10;;;16.40;75.00;;;;;;5019442;28;20560;-92
2022/11/09 02:04:38;;;;;;;16.63;5.37;;;16.40;75.00;;;;;;5019443;28;20215;-93
2022/11/09 02:07:11;;;;;;;8.83;2.93;;;16.40;75.30;;;;;;5016064;28;20209;-92
2022/11/09 02:09:54;;;;;;;12.50;3.50;;;16.30;75.10;;;;;;5017369;28;20210;-93
2022/11/09 02:12:24;;;;;;;10.60;3.33;;;16.30;75.20;;;;;;5009393;28;20209;-93
2022/11/09 02:14:53;;;;;;;11.67;3.20;;;16.30;75.10;;;;;;5016850;28;20217;-92
2022/11/09 02:17:32;;;;;;;11.37;3.30;;;16.20;75.00;;;;;;5017011;28;20225;-93
2022/11/09 02:20:17;;;;;;;12.60;4.20;;;16.20;75.50;;;;;;5016221;28;20248;-93
2022/11/09 02:22:46;;;;;;;14.07;4.33;;;16.20;75.40;;;;;;5006214;28;20212;-94
2022/11/09 02:25:16;;;;;;;14.47;3.67;;;16.20;75.40;;;;;;5017389;28;20217;-94
2022/11/09 02:27:52;;;;;;;8.80;2.40;;;16.10;75.50;;;;;;5019040;28;20214;-92
2022/11/09 02:30:25;;;;;;;15.00;4.37;;;16.10;75.50;;;;;;5010897;28;20334;-94
2022/11/09 02:32:58;;;;;;;14.47;3.97;;;16.10;75.50;;;;;;5014573;28;20210;-93
2022/11/09 02:35:31;;;;;;;12.63;3.67;;;16.00;75.30;;;;;;5015114;28;20219;-92
2022/11/09 02:38:01;;;;;;;13.10;3.60;;;16.00;75.30;;;;;;5012109;28;20288;-93
2022/11/09 02:40:35;;;;;;;12.43;3.03;;;16.00;75.30;;;;;;5009246;28;20213;-94
2022/11/09 02:43:04;;;;;;;8.27;2.87;;;16.00;75.60;;;;;;5011182;28;20204;-94
2022/11/09 02:45:32;;;;;;;12.20;3.07;;;15.90;75.50;;;;;;5006951;28;20215;-93
2022/11/09 02:48:05;;;;;;;10.30;3.27;;;15.90;75.50;;;;;;5015205;28;20204;-93
2022/11/09 02:50:45;;;;;;;13.03;4.00;;;15.90;75.70;;;;;;5009999;28;20275;-93
2022/11/09 02:53:13;;;;;;;14.77;4.10;;;15.90;75.70;;;;;;5003808;28;20209;-92
2022/11/09 02:55:44;;;;;;;11.90;3.50;;;15.90;75.60;;;;;;5006310;28;20215;-94
2022/11/09 02:58:14;;;;;;;10.63;2.57;;;15.90;75.80;;;;;;5012976;28;20208;-94
2022/11/09 03:00:49;;;;;;;10.07;3.43;;;15.80;76.50;;;;;;5007440;28;20731;-93
2022/11/09 03:03:17;;;;;;;12.67;3.63;;;15.80;76.10;;;;;;5015484;28;20725;-93
2022/11/09 03:05:46;;;;;;;9.67;2.60;;;15.80;75.80;;;;;;5016876;28;20207;-92
2022/11/09 03:08:13;;;;;;;9.53;3.07;;;15.80;76.00;;;;;;5021701;28;20219;-93
2022/11/09 03:10:42;;;;;;;11.23;3.17;;;15.70;75.90;;;;;;5019817;28;20206;-92
2022/11/09 03:13:12;;;;;;;7.60;2.33;;;15.70;76.00;;;;;;5012988;28;20621;-93
2022/11/09 03:15:39;;;;;;;12.23;3.43;;;15.70;76.10;;;;;;5007033;28;20218;-93
2022/11/09 03:18:17;;;;;;;9.00;2.77;;;15.70;76.00;;;;;;5013718;28;20216;-93
2022/11/09 03:20:46;;;;;;;14.13;3.57;;;15.70;76.30;;;;;;5011599;28;20233;-92
2022/11/09 03:23:17;;;;;;;9.70;2.67;;;15.70;76.20;;;;;;5023424;28;20201;-93
2022/11/09 03:25:52;;;;;;;21.13;4.23;;;15.70;76.40;;;;;;5022675;28;20621;-94
2022/11/09 03:28:23;;;;;;;12.10;3.33;;;15.60;76.50;;;;;;5024309;28;20206;-93
2022/11/09 03:30:52;;;;;;;11.83;3.57;;;15.60;76.30;;;;;;5015934;28;20230;-94
2022/11/09 03:33:21;;;;;;;14.27;3.63;;;15.60;76.50;;;;;;5023527;28;20262;-93
2022/11/09 03:36:03;;;;;;;11.80;2.77;;;15.60;76.40;;;;;;5022083;28;20208;-93
2022/11/09 03:38:37;;;;;;;12.50;2.57;;;15.60;76.70;;;;;;5020943;28;20204;-93
2022/11/09 03:41:07;;;;;;;12.87;3.47;;;15.60;76.80;;;;;;5019492;28;20227;-94
2022/11/09 03:43:35;;;;;;;8.80;2.47;;;15.60;76.70;;;;;;5017337;28;20217;-92
2022/11/09 03:46:05;;;;;;;11.50;3.97;;;15.60;76.60;;;;;;5018689;28;20221;-93
2022/11/09 03:48:35;;;;;;;12.03;3.47;;;15.60;76.80;;;;;;5015816;28;20232;-93
2022/11/09 03:51:12;;;;;;;13.37;3.93;;;15.60;76.80;;;;;;5009246;28;20205;-93
2022/11/09 03:53:44;;;;;;;9.03;3.07;;;15.60;77.00;;;;;;5008460;28;20210;-93
2022/11/09 03:56:25;;;;;;;9.67;2.80;;;15.60;77.10;;;;;;5010785;28;20206;-93
2022/11/09 03:58:54;;;;;;;10.00;3.10;;;15.50;77.40;;;;;;5009257;28;20210;-94
2022/11/09 04:01:28;;;;;;;13.00;3.20;;;15.50;77.10;;;;;;5018415;28;20225;-91
2022/11/09 04:03:59;;;;;;;11.00;2.80;;;15.50;77.40;;;;;;5023118;28;20258;-92
2022/11/09 04:06:34;;;;;;;8.67;2.93;;;15.50;77.30;;;;;;5022025;28;20196;-92
2022/11/09 04:09:01;;;;;;;10.33;3.17;;;15.50;77.60;;;;;;5022261;28;20200;-93
2022/11/09 04:11:29;;;;;;;12.80;3.37;;;15.50;77.20;;;;;;5020933;28;20273;-92
2022/11/09 04:16:44;;;;;;;9.00;2.57;;;15.40;77.50;;;;;;5006109;28;20210;-92
2022/11/09 04:19:11;;;;;;;11.93;2.90;;;15.40;77.50;;;;;;5010922;28;20214;-93
2022/11/09 04:21:40;;;;;;;11.00;3.47;;;15.40;77.50;;;;;;5024827;28;20224;-93
2022/11/09 04:24:10;;;;;;;9.43;2.73;;;15.40;77.80;;;;;;5022616;28;20218;-93
2022/11/09 04:26:39;;;;;;;12.07;2.80;;;15.40;78.10;;;;;;5022142;28;20233;-93
2022/11/09 04:29:11;;;;;;;9.93;3.20;;;15.40;78.30;;;;;;5008557;28;20198;-94
2022/11/09 04:31:49;;;;;;;14.93;4.63;;;15.30;78.30;;;;;;5022562;28;20227;-94
2022/11/09 04:34:22;;;;;;;13.60;3.67;;;15.30;78.30;;;;;;5020036;28;20255;-93
2022/11/09 04:36:54;;;;;;;8.73;2.20;;;15.30;78.30;;;;;;5001518;28;20215;-94
2022/11/09 04:39:23;;;;;;;12.20;2.87;;;15.30;78.80;;;;;;5002261;28;20234;-94
2022/11/09 04:41:54;;;;;;;10.83;3.53;;;15.30;78.90;;;;;;4998901;28;20286;-93
2022/11/09 04:44:23;;;;;;;11.97;3.03;;;15.30;79.10;;;;;;5016026;28;20236;-93
2022/11/09 04:46:50;;;;;;;9.17;2.73;;;15.30;79.20;;;;;;5016843;28;20205;-94
2022/11/09 04:49:17;;;;;;;11.97;3.13;;;15.30;79.80;;;;;;5008681;28;20211;-93
2022/11/09 04:51:45;;;;;;;13.43;4.30;;;15.30;79.60;;;;;;4998143;28;20206;-94
2022/11/09 04:54:21;;;;;;;11.53;3.53;;;15.30;79.60;;;;;;5013833;28;20213;-93
2022/11/09 04:56:49;;;;;;;12.00;3.83;;;15.30;80.20;;;;;;5000873;28;20206;-92
2022/11/09 04:59:21;;;;;;;13.37;3.67;;;15.30;79.90;;;;;;5014132;28;20228;-94
2022/11/09 05:01:49;;;;;;;15.67;4.00;;;15.30;80.30;;;;;;5005362;28;20300;-92
2022/11/09 05:04:18;;;;;;;11.93;3.37;;;15.30;80.40;;;;;;5006293;28;21063;-94
2022/11/09 05:06:47;;;;;;;16.37;4.07;;;15.30;80.60;;;;;;5006477;28;20217;-93
2022/11/09 05:09:16;;;;;;;10.77;2.70;;;15.30;80.70;;;;;;5023789;28;20229;-92
2022/11/09 05:11:44;;;;;;;17.27;4.40;;;15.30;80.40;;;;;;5015298;28;20210;-92
2022/11/09 05:14:11;;;;;;;12.27;3.10;;;15.30;80.50;;;;;;5021136;28;20207;-93
2022/11/09 05:16:40;;;;;;;10.27;3.03;;;15.30;80.50;;;;;;5023683;28;20207;-93
2022/11/09 05:19:09;;;;;;;14.27;2.97;;;15.30;81.00;;;;;;5016845;28;20214;-94
2022/11/09 05:21:40;;;;;;;14.90;4.37;;;15.30;81.20;;;;;;5008919;28;20237;-94
2022/11/09 05:24:08;;;;;;;9.87;2.67;;;15.30;81.10;;;;;;5026881;28;20215;-93
2022/11/09 05:26:42;;;;;;;14.60;4.27;;;15.30;80.90;;;;;;5019251;28;20204;-92
2022/11/09 05:29:13;;;;;;;9.83;2.70;;;15.30;81.30;;;;;;5021329;28;20221;-93
2022/11/09 05:31:44;;;;;;;12.43;3.37;;;15.30;81.20;;;;;;5019104;28;20212;-93
2022/11/09 05:34:21;;;;;;;9.13;2.87;;;15.30;81.00;;;;;;5020443;28;20213;-92
2022/11/09 05:36:52;;;;;;;17.53;4.37;;;15.20;81.00;;;;;;5015154;28;20615;-93
2022/11/09 05:39:21;;;;;;;9.27;2.90;;;15.30;81.40;;;;;;5021509;28;20305;-92
2022/11/09 05:41:58;;;;;;;9.90;3.07;;;15.20;81.20;;;;;;5012054;28;20236;-92
2022/11/09 05:44:28;;;;;;;12.13;3.37;;;15.20;81.50;;;;;;5014521;28;20231;-94
2022/11/09 05:46:58;;;;;;;10.63;2.93;;;15.20;81.30;;;;;;5012093;28;20205;-92
2022/11/09 05:49:28;;;;;;;10.43;3.27;;;15.20;81.10;;;;;;5019411;28;20201;-92
2022/11/09 05:51:55;;;;;;;11.57;3.53;;;15.20;81.60;;;;;;5018617;28;20223;-93
2022/11/09 05:54:28;;;;;;;14.07;4.23;;;15.20;81.40;;;;;;5014918;28;20207;-92
2022/11/09 05:57:02;;;;;;;12.27;3.60;;;15.20;81.60;;;;;;5020569;28;20262;-93
2022/11/09 05:59:30;;;;;;;14.57;3.80;;;15.10;81.50;;;;;;5018926;28;20205;-92
2022/11/09 06:01:59;;;;;;;15.37;3.30;;;15.10;81.50;;;;;;5017831;28;20208;-94
2022/11/09 06:04:27;;;;;;;9.43;3.47;;;15.10;81.70;;;;;;5006927;28;20219;-93
2022/11/09 06:07:01;;;;;;;11.37;3.07;;;15.10;82.10;;;;;;5014298;28;20204;-92
2022/11/09 06:09:31;;;;;;;12.97;3.67;;;15.10;81.70;;;;;;5026766;28;20192;-92
2022/11/09 06:12:03;;;;;;;9.57;2.87;;;15.10;81.60;;;;;;5020037;28;20275;-92
2022/11/09 06:14:32;;;;;;;14.73;4.10;;;15.00;82.20;;;;;;5003731;28;20199;-93
2022/11/09 06:17:04;;;;;;;13.90;3.17;;;15.00;81.80;;;;;;5006730;28;20208;-94
2022/11/09 06:19:32;;;;;;;10.10;3.80;;;15.00;82.80;;;;;;5021380;28;20236;-94
2022/11/09 06:22:05;;;;;;;14.00;3.30;;;15.00;82.30;;;;;;5021112;28;20240;-93
2022/11/09 06:24:34;;;;;;;12.33;3.40;;;15.00;82.50;;;;;;5023646;28;20207;-93
2022/11/09 06:27:03;;;;;;;9.87;2.93;;;15.00;82.30;;;;;;5017662;28;20218;-94
2022/11/09 06:29:32;;;;;;;12.63;3.90;;;14.90;82.40;;;;;;5020336;28;20232;-93
2022/11/09 06:32:00;;;;;;;20.03;5.43;;;14.90;82.50;;;;;;5014955;28;20252;-92
2022/11/09 06:34:33;;;;;;;20.20;5.70;;;14.90;82.30;;;;;;5014630;28;20591;-93
2022/11/09 06:37:01;;;;;;;15.47;4.37;;;14.90;82.60;;;;;;5016418;28;20204;-92
2022/11/09 06:39:28;;;;;;;15.20;4.33;;;14.90;82.50;;;;;;5013819;28;20204;-92
2022/11/09 06:41:56;;;;;;;18.40;4.80;;;14.90;82.50;;;;;;5012246;28;20231;-93
2022/11/09 06:44:24;;;;;;;15.57;4.27;;;14.90;82.60;;;;;;5011316;28;20649;-93
2022/11/09 06:46:52;;;;;;;14.87;4.33;;;14.90;82.50;;;;;;5010319;28;20227;-93
2022/11/09 06:49:22;;;;;;;14.30;3.50;;;14.90;82.50;;;;;;5009937;28;20302;-92
2022/11/09 06:51:52;;;;;;;17.07;4.63;;;14.80;82.90;;;;;;5007104;28;20216;-91
2022/11/09 06:54:19;;;;;;;16.50;3.93;;;14.80;82.90;;;;;;5006022;28;20262;-90
2022/11/09 06:57:05;;;;;;;13.97;3.73;;;14.80;83.00;;;;;;5009436;28;20267;-92
2022/11/09 06:59:41;;;;;;;20.37;4.67;;;14.80;83.60;;;;;;5007737;28;20955;-91
2022/11/09 07:02:19;;;;;;;12.03;2.93;;;14.80;83.50;;;;;;5011201;28;20329;-96
2022/11/09 07:05:22;;;;;;;11.90;3.80;;;14.80;83.70;;;;;;5020221;28;20234;-96
2022/11/09 07:08:10;;;;;;;;;;;;;;;;;;;;;
2022/11/09 07:13:25;;;;;;;13.47;3.80;;;14.80;83.40;;;;;;4990973;28;20213;-96
2022/11/09 07:15:54;;;;;;;9.10;3.00;;;14.80;83.70;;;;;;4989166;28;20499;-92
2022/11/09 07:18:21;;;;;;;21.13;4.33;;;14.80;83.80;;;;;;4981357;28;20261;-92
2022/11/09 07:20:50;;;;;;;13.90;4.23;;;14.80;83.80;;;;;;4991250;28;20227;-93
2022/11/09 07:23:19;;;;;;;16.63;4.13;;;14.80;83.60;;;;;;4993291;28;20339;-93
2022/11/09 07:25:47;;;;;;;10.80;3.53;;;14.80;84.00;;;;;;4975852;28;20305;-95
2022/11/09 07:28:18;;;;;;;10.03;3.33;;;14.70;83.70;;;;;;4975950;28;20204;-92
2022/11/09 07:30:51;;;;;;;11.83;3.97;;;14.80;84.20;;;;;;4987251;28;20214;-91
2022/11/09 07:33:21;;;;;;;14.40;3.77;;;14.80;84.30;;;;;;4993998;28;20194;-91
2022/11/09 07:35:49;;;;;;;12.77;3.43;;;14.70;83.80;;;;;;4992267;28;20193;-92
2022/11/09 07:38:19;;;;;;;15.17;4.37;;;14.70;84.70;;;;;;4992678;28;20239;-90
2022/11/09 07:40:46;;;;;;;15.73;3.80;;;14.70;84.80;;;;;;4971383;28;20780;-92
2022/11/09 07:43:16;;;;;;;15.73;4.27;;;14.70;84.30;;;;;;4969821;28;20232;-92
2022/11/09 07:45:45;;;;;;;22.30;4.77;;;14.70;84.90;;;;;;4970414;28;20725;-91
2022/11/09 07:48:15;;;;;;;18.07;4.00;;;14.70;84.90;;;;;;4971034;28;20745;-91
2022/11/09 07:50:50;;;;;;;16.70;5.00;;;14.70;85.10;;;;;;4968891;28;20719;-91
2022/11/09 07:53:20;;;;;;;17.60;4.30;;;14.70;85.50;;;;;;4952034;28;20206;-91
2022/11/09 07:55:59;;;;;;;15.50;3.90;;;14.70;84.90;;;;;;4970213;28;20213;-91
2022/11/09 07:58:30;;;;;;;12.83;4.07;;;14.70;85.90;;;;;;4970647;28;20204;-91
2022/11/09 08:01:00;;;;;;;17.57;4.70;;;14.70;85.90;;;;;;4961254;28;20582;-91
2022/11/09 08:03:29;;;;;;;21.77;4.90;;;14.70;85.50;;;;;;4967269;28;20258;-91
2022/11/09 08:05:58;;;;;;;18.57;4.67;;;14.70;86.00;;;;;;4967862;28;20232;-91
2022/11/09 08:08:25;;;;;;;15.30;4.30;;;14.70;85.90;;;;;;4968940;28;20244;-91
2022/11/09 08:10:54;;;;;;;20.30;5.20;;;14.70;86.00;;;;;;4967974;28;20292;-91
2022/11/09 08:13:24;;;;;;;13.30;4.63;;;14.70;86.10;;;;;;4968388;28;20207;-91
2022/11/09 08:16:16;;;;;;;15.57;4.20;;;14.70;86.30;;;;;;4977638;28;20203;-91
2022/11/09 08:18:43;;;;;;;20.37;5.23;;;14.70;86.80;;;;;;4970121;28;20210;-91
2022/11/09 08:21:14;;;;;;;15.77;3.73;;;14.70;86.20;;;;;;4978859;28;20712;-92
2022/11/09 08:23:41;;;;;;;15.40;4.53;;;14.70;86.50;;;;;;4986187;28;20221;-90
2022/11/09 08:26:08;;;;;;;10.90;3.17;;;14.70;86.30;;;;;;4987920;28;20244;-91
2022/11/09 08:28:40;;;;;;;13.73;3.83;;;14.70;86.70;;;;;;4967708;28;20268;-91
2022/11/09 08:31:11;;;;;;;11.57;3.07;;;14.70;88.00;;;;;;4962137;28;20272;-92
2022/11/09 08:33:41;;;;;;;12.60;3.80;;;14.70;87.00;;;;;;4958267;28;20211;-90
2022/11/09 08:36:13;;;;;;;12.20;3.73;;;14.80;87.10;;;;;;4966074;28;20260;-90
2022/11/09 08:38:43;;;;;;;12.93;3.20;;;14.80;87.00;;;;;;4977043;28;20244;-90
2022/11/09 08:41:11;;;;;;;12.77;3.43;;;14.80;87.30;;;;;;4976808;28;20237;-91
2022/11/09 08:43:39;;;;;;;14.10;3.80;;;14.80;87.00;;;;;;4966334;28;20237;-91
2022/11/09 08:46:06;;;;;;;25.90;6.83;;;14.90;87.20;;;;;;4973373;28;20210;-92
2022/11/09 08:48:33;;;;;;;20.47;4.73;;;14.90;87.20;;;;;;4976773;28;20203;-92
2022/11/09 08:51:04;;;;;;;13.07;2.90;;;15.00;87.40;;;;;;4978774;28;20277;-90
2022/11/09 08:53:33;;;;;;;13.77;4.17;;;15.00;87.40;;;;;;4977659;28;20322;-92
2022/11/09 08:56:00;;;;;;;12.70;3.50;;;15.10;87.30;;;;;;4977251;28;20203;-90
2022/11/09 08:58:29;;;;;;;17.47;5.47;;;15.10;86.70;;;;;;4975208;28;20210;-91
2022/11/09 09:00:58;;;;;;;15.47;5.27;;;15.20;86.70;;;;;;4977390;28;20287;-91
2022/11/09 09:03:27;;;;;;;16.27;4.77;;;15.20;86.30;;;;;;4977533;28;20199;-91
2022/11/09 09:06:02;;;;;;;17.67;4.10;;;15.30;85.90;;;;;;4976966;28;20234;-90
2022/11/09 09:08:31;;;;;;;14.60;3.80;;;15.30;85.70;;;;;;4976705;28;20265;-92
2022/11/09 09:11:06;;;;;;;19.37;5.20;;;15.40;85.50;;;;;;4973626;28;20218;-89
2022/11/09 09:13:35;;;;;;;12.17;3.97;;;15.40;85.40;;;;;;4973323;28;20305;-91
2022/11/09 09:16:10;;;;;;;12.30;3.47;;;15.40;84.90;;;;;;4974999;28;20219;-92
2022/11/09 09:18:39;;;;;;;14.63;4.67;;;15.50;85.00;;;;;;4975253;28;20301;-91
2022/11/09 09:21:09;;;;;;;18.13;4.27;;;15.50;85.30;;;;;;4978559;28;20234;-91
2022/11/09 09:23:37;;;;;;;13.93;4.20;;;15.60;85.10;;;;;;4962466;28;20677;-89
2022/11/09 09:26:07;;;;;;;16.77;4.97;;;15.60;84.60;;;;;;4965861;28;20226;-91
2022/11/09 09:28:35;;;;;;;16.73;3.77;;;15.70;84.00;;;;;;4969318;28;20259;-91
2022/11/09 09:31:05;;;;;;;14.17;4.23;;;15.70;84.00;;;;;;4966242;28;20306;-91
2022/11/09 09:33:32;;;;;;;14.40;5.40;;;15.70;83.30;;;;;;4980147;28;20206;-89
2022/11/09 09:35:59;;;;;;;16.97;5.27;;;15.80;83.30;;;;;;4977362;28;20274;-90
2022/11/09 09:38:28;;;;;;;14.73;4.27;;;15.80;83.30;;;;;;4974848;28;20230;-90
2022/11/09 09:40:59;;;;;;;11.30;3.80;;;15.80;83.80;;;;;;4974151;28;20325;-90
2022/11/09 09:43:32;;;;;;;27.33;8.07;;;15.80;84.40;;;;;;4971290;28;20215;-89
2022/11/09 09:46:02;;;;;;;15.47;5.03;;;15.80;84.90;;;;;;4969951;28;20283;-90
2022/11/09 09:48:37;;;;;;;17.53;4.93;;;15.80;85.00;;;;;;4966911;28;20594;-90
2022/11/09 09:51:12;;;;;;;13.80;3.80;;;15.80;85.10;;;;;;4955909;28;20211;-89
2022/11/09 09:53:46;;;;;;;18.13;5.17;;;15.80;85.60;;;;;;4970110;28;20202;-90
2022/11/09 09:56:18;;;;;;;14.70;3.67;;;15.70;86.10;;;;;;4974707;28;20258;-89
2022/11/09 09:58:52;;;;;;;12.70;3.93;;;15.60;86.20;;;;;;4974106;28;20210;-89
2022/11/09 10:01:35;;;;;;;22.83;6.50;;;15.60;86.50;;;;;;4977105;28;20257;-89
2022/11/09 10:04:02;;;;;;;13.33;4.00;;;15.50;87.00;;;;;;4974781;28;20301;-89
2022/11/09 10:06:40;;;;;;;16.50;5.13;;;15.60;87.00;;;;;;4973094;28;20205;-88
2022/11/09 10:09:19;;;;;;;10.60;3.50;;;15.50;88.10;;;;;;4973147;28;20202;-90
2022/11/09 10:11:54;;;;;;;11.07;3.37;;;15.50;88.40;;;;;;4975973;28;20315;-90
2022/11/09 10:15:08;;;;;;;18.27;4.90;;;15.50;88.00;;;;;;4975358;28;20215;-90
2022/11/09 10:17:47;;;;;;;10.90;4.00;;;15.40;88.40;;;;;;4940573;29;20203;-90
2022/11/09 10:20:29;;;;;;;14.63;3.73;;;15.40;88.20;;;;;;4974615;28;20212;-89
2022/11/09 10:23:08;;;;;;;13.80;3.70;;;15.40;89.10;;;;;;4971526;28;20280;-89
2022/11/09 10:25:38;;;;;;;17.57;4.40;;;15.40;89.30;;;;;;4972297;28;20959;-89
2022/11/09 10:28:11;;;;;;;13.47;3.63;;;15.40;89.00;;;;;;4973516;28;20318;-89
2022/11/09 10:30:39;;;;;;;13.10;4.50;;;15.40;89.10;;;;;;4972809;28;20208;-89
2022/11/09 10:33:17;;;;;;;15.60;4.40;;;15.40;88.80;;;;;;4971279;28;20226;-89
2022/11/09 10:35:47;;;;;;;17.03;3.93;;;15.40;89.60;;;;;;4969855;28;20242;-89
2022/11/09 10:38:18;;;;;;;18.87;4.63;;;15.40;88.70;;;;;;4952046;28;20304;-90
2022/11/09 10:40:56;;;;;;;10.83;3.60;;;15.40;88.60;;;;;;4957229;28;20205;-90
2022/11/09 10:43:23;;;;;;;17.97;4.90;;;15.40;89.50;;;;;;4973078;28;20294;-88
2022/11/09 10:46:03;;;;;;;12.83;4.53;;;15.40;88.80;;;;;;4968597;28;20949;-89
2022/11/09 10:48:34;;;;;;;11.00;3.63;;;15.40;89.30;;;;;;4969355;28;20686;-89
2022/11/09 10:51:03;;;;;;;13.47;3.50;;;15.50;89.90;;;;;;4969824;28;20651;-89
2022/11/09 10:53:31;;;;;;;15.80;4.70;;;15.50;89.60;;;;;;4967866;28;20742;-90
2022/11/09 10:56:11;;;;;;;16.60;3.97;;;15.50;88.90;;;;;;4970102;28;20206;-90
2022/11/09 10:58:40;;;;;;;11.53;3.80;;;15.60;88.50;;;;;;4969454;28;20618;-89
2022/11/09 11:01:17;;;;;;;10.87;3.20;;;15.60;87.50;;;;;;4971343;28;20214;-91
2022/11/09 11:03:49;;;;;;;12.83;3.27;;;15.70;87.40;;;;;;4973179;28;20268;-90
2022/11/09 11:06:20;;;;;;;14.47;3.43;;;15.70;87.50;;;;;;4973914;28;20249;-90
2022/11/09 11:08:50;;;;;;;10.33;3.20;;;15.70;88.80;;;;;;4972297;28;20232;-90
2022/11/09 11:11:30;;;;;;;12.57;2.93;;;15.80;87.60;;;;;;4974369;28;20313;-89
2022/11/09 11:14:13;;;;;;;10.67;2.97;;;15.80;86.60;;;;;;4982075;28;20207;-90
2022/11/09 11:16:43;;;;;;;11.37;3.60;;;15.90;86.70;;;;;;4980009;28;20209;-89
2022/11/09 11:19:30;;;;;;;6.83;2.10;;;15.90;86.50;;;;;;4975641;28;20223;-90
2022/11/09 11:22:21;;;;;;;6.70;2.10;;;15.90;86.40;;;;;;4975402;28;20690;-90
2022/11/09 11:24:54;;;;;;;12.67;3.83;;;15.90;87.50;;;;;;4973121;28;20205;-91
2022/11/09 11:27:27;;;;;;;11.80;3.90;;;16.00;88.50;;;;;;4971540;28;20213;-90
2022/11/09 11:29:59;;;;;;;18.23;4.30;;;16.00;89.20;;;;;;4972901;28;20211;-90
2022/11/09 11:32:27;;;;;;;11.30;3.40;;;16.10;89.20;;;;;;4969934;28;20213;-91
2022/11/09 11:34:55;;;;;;;13.60;3.60;;;16.20;90.10;;;;;;4972275;28;20294;-91
2022/11/09 11:37:36;;;;;;;11.90;3.73;;;16.30;89.70;;;;;;4971106;28;20218;-91
2022/11/09 11:40:09;;;;;;;13.07;4.33;;;16.40;89.30;;;;;;4970321;28;20681;-91
2022/11/09 11:43:08;;;;;;;10.77;3.43;;;16.50;90.10;;;;;;4969629;28;20786;-89
2022/11/09 11:45:38;;;;;;;10.70;3.87;;;16.70;88.30;;;;;;4969050;28;20861;-90
2022/11/09 11:48:40;;;;;;;14.43;4.10;;;16.90;89.00;;;;;;4968391;28;20297;-90
2022/11/09 11:51:18;;;;;;;8.47;2.90;;;17.10;86.90;;;;;;4963096;28;20209;-90
2022/11/09 11:54:02;;;;;;;12.63;3.50;;;17.30;85.00;;;;;;4970301;28;20209;-90
2022/11/09 11:56:34;;;;;;;8.43;2.83;;;17.40;83.60;;;;;;4971700;28;20245;-90
2022/11/09 11:59:25;;;;;;;9.17;3.13;;;17.50;82.50;;;;;;4974569;28;20232;-91
2022/11/09 12:02:19;;;;;;;13.13;4.20;;;17.70;81.10;;;;;;4971847;28;20574;-91
2022/11/09 12:05:21;;;;;;;10.67;3.27;;;17.80;80.20;;;;;;4952444;28;20239;-90
2022/11/09 12:07:59;;;;;;;6.83;1.77;;;17.90;78.70;;;;;;4965228;28;20218;-91
2022/11/09 12:10:42;;;;;;;13.80;3.97;;;18.10;78.80;;;;;;4977564;28;20673;-91
2022/11/09 12:13:24;;;;;;;9.03;2.93;;;18.20;77.20;;;;;;4970708;28;20268;-91
2022/11/09 12:15:59;;;;;;;17.00;4.10;;;18.20;76.20;;;;;;4969852;28;20324;-91
2022/11/09 12:18:40;;;;;;;12.37;3.77;;;18.30;77.00;;;;;;4969223;28;20216;-91
2022/11/09 12:21:16;;;;;;;10.13;3.33;;;18.40;76.70;;;;;;4969655;28;20224;-90
2022/11/09 12:24:05;;;;;;;16.67;5.23;;;18.40;75.70;;;;;;4968561;28;20240;-90
2022/11/09 12:26:46;;;;;;;9.63;3.17;;;18.50;74.80;;;;;;4969893;28;20206;-90
2022/11/09 12:29:20;;;;;;;10.63;3.40;;;18.60;74.90;;;;;;4955406;28;20233;-90
2022/11/09 12:32:05;;;;;;;11.60;3.97;;;18.70;75.20;;;;;;4969432;28;20218;-92
2022/11/09 12:34:40;;;;;;;10.40;3.30;;;18.80;74.40;;;;;;4968363;28;20257;-92
2022/11/09 12:37:14;;;;;;;13.07;3.57;;;18.90;74.90;;;;;;4969154;28;20210;-91
2022/11/09 12:39:46;;;;;;;11.03;3.70;;;19.00;74.50;;;;;;4967710;28;20612;-90
2022/11/09 12:42:20;;;;;;;10.83;3.40;;;19.10;73.80;;;;;;4967750;28;20277;-90
2022/11/09 12:45:02;;;;;;;12.10;4.00;;;19.20;74.20;;;;;;4968334;28;20328;-90
2022/11/09 12:47:34;;;;;;;6.77;2.67;;;19.20;72.70;;;;;;4967958;28;20252;-91
2022/11/09 12:50:01;;;;;;;12.87;3.47;;;19.30;73.80;;;;;;4966128;28;20203;-90
2022/11/09 12:52:34;;;;;;;17.53;5.50;;;19.40;74.10;;;;;;4966643;28;20297;-91
2022/11/09 12:55:07;;;;;;;7.90;3.13;;;19.50;72.50;;;;;;4961563;28;20230;-90
2022/11/09 12:57:36;;;;;;;14.63;4.50;;;19.60;72.50;;;;;;4976492;28;20270;-90
2022/11/09 13:00:06;;;;;;;9.40;3.47;;;19.70;72.00;;;;;;4973291;28;20207;-89
2022/11/09 13:02:43;;;;;;;8.13;2.50;;;19.70;70.70;;;;;;4974390;28;20305;-91
2022/11/09 13:05:29;;;;;;;8.17;2.93;;;19.70;70.70;;;;;;4979223;28;20203;-90
2022/11/09 13:08:00;;;;;;;12.80;3.10;;;19.70;69.50;;;;;;4973054;28;20240;-90
2022/11/09 13:10:35;;;;;;;11.90;3.90;;;19.70;69.60;;;;;;4949413;28;20314;-91
2022/11/09 13:13:05;;;;;;;12.63;3.57;;;19.70;68.80;;;;;;4957860;28;20225;-92
2022/11/09 13:15:34;;;;;;;15.10;3.30;;;19.70;69.20;;;;;;4968078;28;20666;-92
2022/11/09 13:18:04;;;;;;;11.83;3.20;;;19.70;68.50;;;;;;4970127;28;20206;-90